createdAt,value
2022-10-19T00:00:43.888Z,4.53
2022-10-19T00:03:11.079Z,4.70
2022-10-19T00:05:38.227Z,5.55
2022-10-19T00:08:05.474Z,4.75
2022-10-19T00:10:32.740Z,5.32
2022-10-19T00:12:59.898Z,5.05
2022-10-19T00:15:27.087Z,5.80
2022-10-19T00:17:54.267Z,5.60
2022-10-19T00:20:21.438Z,6.15
2022-10-19T00:22:50.739Z,4.10
2022-10-19T00:25:17.924Z,5.63
2022-10-19T00:27:45.119Z,5.95
2022-10-19T00:30:12.264Z,5.93
2022-10-19T00:32:39.422Z,8.20
2022-10-19T00:35:06.906Z,6.35
2022-10-19T00:37:34.065Z,6.75
2022-10-19T00:40:01.226Z,7.63
2022-10-19T00:42:28.363Z,7.10
2022-10-19T00:44:57.619Z,7.43
2022-10-19T00:47:24.941Z,8.50
2022-10-19T00:49:52.074Z,8.95
2022-10-19T00:52:20.192Z,8.52
2022-10-19T00:54:47.679Z,7.53
2022-10-19T00:57:15.175Z,8.38
2022-10-19T00:59:42.513Z,8.63
2022-10-19T01:02:09.717Z,8.23
2022-10-19T01:04:37.981Z,9.30
2022-10-19T01:07:05.376Z,9.07
2022-10-19T01:09:32.553Z,8.90
2022-10-19T01:11:59.722Z,8.52
2022-10-19T01:14:29.781Z,9.05
2022-10-19T01:17:15.374Z,9.18
2022-10-19T01:19:51.306Z,9.55
2022-10-19T01:22:27.536Z,8.38
2022-10-19T01:25:00.262Z,10.05
2022-10-19T01:27:36.397Z,9.02
2022-10-19T01:30:06.743Z,9.50
2022-10-19T01:32:33.871Z,9.27
2022-10-19T01:35:01.044Z,11.50
2022-10-19T01:37:31.944Z,9.75
2022-10-19T01:40:07.918Z,9.85
2022-10-19T01:42:48.655Z,10.70
2022-10-19T01:45:16.066Z,10.85
2022-10-19T01:47:53.000Z,10.45
2022-10-19T01:50:23.473Z,11.95
2022-10-19T01:52:50.635Z,11.18
2022-10-19T01:55:17.810Z,13.38
2022-10-19T01:57:47.043Z,11.20
2022-10-19T02:00:14.434Z,9.38
2022-10-19T02:02:42.905Z,9.13
2022-10-19T02:05:10.234Z,8.68
2022-10-19T02:07:37.366Z,9.23
2022-10-19T02:10:04.829Z,9.05
2022-10-19T02:12:32.381Z,9.70
2022-10-19T02:15:00.227Z,8.73
2022-10-19T02:17:28.273Z,9.90
2022-10-19T02:19:55.493Z,9.52
2022-10-19T02:22:22.645Z,9.70
2022-10-19T02:24:49.807Z,10.10
2022-10-19T02:27:17.007Z,16.20
2022-10-19T02:29:44.156Z,14.50
2022-10-19T02:32:11.352Z,17.50
2022-10-19T02:34:38.540Z,17.67
2022-10-19T02:37:05.768Z,13.95
2022-10-19T02:39:33.035Z,13.70
2022-10-19T02:42:19.483Z,9.77
2022-10-19T02:45:00.092Z,9.45
2022-10-19T02:47:31.960Z,9.75
2022-10-19T02:49:59.333Z,9.13
2022-10-19T02:52:26.471Z,8.18
2022-10-19T02:54:53.646Z,8.55
2022-10-19T02:57:24.607Z,9.50
2022-10-19T02:59:51.989Z,10.15
2022-10-19T03:02:19.383Z,10.05
2022-10-19T03:07:15.444Z,9.75
2022-10-19T03:09:42.934Z,9.43
2022-10-19T03:12:10.364Z,9.32
2022-10-19T03:14:37.505Z,8.77
2022-10-19T03:17:04.735Z,8.15
2022-10-19T03:19:31.894Z,9.27
2022-10-19T03:21:59.034Z,8.73
2022-10-19T03:24:26.227Z,8.65
2022-10-19T03:26:53.381Z,9.45
2022-10-19T03:29:20.514Z,9.90
2022-10-19T03:31:47.674Z,9.43
2022-10-19T03:34:14.810Z,10.65
2022-10-19T03:36:41.959Z,12.82
2022-10-19T03:39:09.866Z,13.07
2022-10-19T03:41:37.091Z,14.00
2022-10-19T03:44:04.511Z,13.77
2022-10-19T03:46:31.768Z,12.50
2022-10-19T03:48:58.906Z,17.88
2022-10-19T03:51:26.908Z,16.00
2022-10-19T03:53:54.546Z,15.80
2022-10-19T03:56:22.282Z,17.63
2022-10-19T03:58:49.715Z,26.98
2022-10-19T04:01:17.859Z,26.23
2022-10-19T04:03:45.094Z,19.00
2022-10-19T04:06:15.868Z,13.98
2022-10-19T04:08:45.645Z,14.73
2022-10-19T04:11:13.704Z,15.00
2022-10-19T04:13:40.931Z,14.85
2022-10-19T04:16:08.359Z,13.10
2022-10-19T04:18:35.516Z,10.57
2022-10-19T04:21:03.419Z,10.70
2022-10-19T04:23:31.210Z,10.23
2022-10-19T04:26:01.630Z,13.30
2022-10-19T04:28:28.872Z,13.95
2022-10-19T04:30:56.186Z,10.63
2022-10-19T04:33:23.430Z,10.43
2022-10-19T04:35:50.557Z,10.32
2022-10-19T04:38:17.758Z,9.52
2022-10-19T04:40:44.902Z,10.75
2022-10-19T04:43:12.111Z,12.25
2022-10-19T04:45:39.298Z,11.73
2022-10-19T04:48:06.487Z,12.15
2022-10-19T04:50:33.621Z,11.00
2022-10-19T04:53:00.966Z,13.32
2022-10-19T04:55:28.107Z,20.48
2022-10-19T04:57:55.243Z,14.10
2022-10-19T05:00:22.434Z,17.10
2022-10-19T05:02:49.592Z,17.15
2022-10-19T05:05:16.733Z,14.60
2022-10-19T05:07:43.914Z,14.90
2022-10-19T05:10:13.926Z,17.75
2022-10-19T05:12:41.070Z,12.90
2022-10-19T05:15:08.778Z,14.27
2022-10-19T05:17:36.198Z,14.43
2022-10-19T05:20:03.624Z,16.75
2022-10-19T05:22:30.812Z,19.92
2022-10-19T05:24:58.262Z,17.13
2022-10-19T05:27:25.554Z,16.45
2022-10-19T05:29:53.046Z,15.05
2022-10-19T05:32:20.205Z,28.85
2022-10-19T05:34:47.355Z,24.35
2022-10-19T05:37:14.634Z,33.40
2022-10-19T05:39:41.817Z,22.27
2022-10-19T05:42:08.987Z,24.17
2022-10-19T05:47:09.260Z,17.73
2022-10-19T05:49:36.397Z,20.50
2022-10-19T05:52:03.622Z,19.80
2022-10-19T05:54:30.803Z,22.63
2022-10-19T05:56:58.155Z,17.55
2022-10-19T05:59:25.554Z,18.80
2022-10-19T06:01:52.813Z,17.75
2022-10-19T06:04:20.040Z,18.13
2022-10-19T06:06:47.321Z,22.90
2022-10-19T06:09:14.660Z,22.63
2022-10-19T06:11:42.061Z,16.08
2022-10-19T06:14:10.267Z,16.90
2022-10-19T06:16:37.490Z,16.27
2022-10-19T06:19:04.891Z,23.95
2022-10-19T06:21:32.563Z,29.98
2022-10-19T06:24:00.752Z,31.50
2022-10-19T06:26:28.001Z,30.63
2022-10-19T06:28:55.703Z,15.93
2022-10-19T06:31:22.937Z,20.48
2022-10-19T06:33:50.176Z,38.53
2022-10-19T06:36:24.213Z,29.58
2022-10-19T06:38:51.443Z,22.70
2022-10-19T06:41:19.708Z,18.90
2022-10-19T06:43:50.758Z,16.95
2022-10-19T06:46:20.539Z,16.38
2022-10-19T06:48:54.773Z,16.83
2022-10-19T06:51:22.074Z,12.35
2022-10-19T06:53:52.955Z,12.68
2022-10-19T06:56:24.744Z,15.23
2022-10-19T06:58:52.120Z,12.30
2022-10-19T07:01:19.384Z,14.57
2022-10-19T07:03:46.624Z,13.45
2022-10-19T07:06:13.811Z,15.38
2022-10-19T07:08:41.413Z,12.23
2022-10-19T07:11:12.607Z,9.05
2022-10-19T07:13:39.908Z,12.70
2022-10-19T07:16:08.275Z,8.23
2022-10-19T07:18:35.726Z,9.25
2022-10-19T07:21:03.550Z,9.98
2022-10-19T07:23:31.063Z,9.07
2022-10-19T07:26:01.828Z,10.50
2022-10-19T07:28:29.542Z,11.02
2022-10-19T07:30:56.784Z,8.75
2022-10-19T07:33:24.172Z,9.20
2022-10-19T07:35:51.381Z,9.63
2022-10-19T07:38:19.449Z,7.57
2022-10-19T07:40:47.550Z,10.10
2022-10-19T07:43:14.885Z,9.38
2022-10-19T07:45:42.324Z,7.63
2022-10-19T07:48:09.505Z,6.65
2022-10-19T07:50:36.686Z,7.18
2022-10-19T07:53:05.247Z,6.40
2022-10-19T07:55:33.305Z,8.68
2022-10-19T07:58:02.031Z,10.85
2022-10-19T08:00:29.789Z,10.07
2022-10-19T08:03:19.242Z,7.97
2022-10-19T08:05:44.324Z,7.38
2022-10-19T08:08:11.562Z,10.77
2022-10-19T08:10:38.726Z,7.97
2022-10-19T08:13:06.034Z,11.73
2022-10-19T08:15:33.282Z,11.38
2022-10-19T08:18:01.023Z,8.27
2022-10-19T08:20:28.296Z,10.02
2022-10-19T08:22:58.123Z,10.50
2022-10-19T08:25:26.408Z,8.57
2022-10-19T08:27:53.613Z,9.90
2022-10-19T08:30:20.855Z,8.00
2022-10-19T08:32:48.098Z,9.45
2022-10-19T08:35:15.283Z,9.73
2022-10-19T08:37:46.009Z,8.43
2022-10-19T08:40:18.420Z,10.50
2022-10-19T08:42:49.955Z,9.60
2022-10-19T08:45:26.254Z,8.23
2022-10-19T08:47:59.241Z,8.60
2022-10-19T08:50:27.285Z,9.15
2022-10-19T08:53:01.899Z,10.10
2022-10-19T08:55:31.120Z,11.93
2022-10-19T08:58:01.152Z,17.02
2022-10-19T09:00:48.603Z,11.55
2022-10-19T09:03:22.998Z,9.35
2022-10-19T09:06:29.217Z,11.65
2022-10-19T09:08:56.450Z,11.45
2022-10-19T09:11:25.996Z,11.38
2022-10-19T09:14:06.163Z,9.70
2022-10-19T09:16:35.041Z,13.10
2022-10-19T09:19:02.530Z,9.90
2022-10-19T09:21:47.293Z,10.48
2022-10-19T09:24:30.009Z,8.48
2022-10-19T09:26:58.245Z,7.38
2022-10-19T09:29:31.609Z,6.72
2022-10-19T09:31:59.740Z,7.90
2022-10-19T09:34:27.662Z,11.07
2022-10-19T09:36:57.086Z,11.73
2022-10-19T09:39:28.548Z,11.60
2022-10-19T09:42:01.066Z,11.05
2022-10-19T09:44:28.242Z,8.73
2022-10-19T09:47:13.920Z,9.27
2022-10-19T09:49:42.090Z,9.75
2022-10-19T09:52:28.232Z,10.38
2022-10-19T09:55:14.232Z,9.15
2022-10-19T09:57:44.881Z,7.88
2022-10-19T10:00:22.240Z,12.07
2022-10-19T10:02:53.146Z,7.80
2022-10-19T10:05:20.434Z,7.15
2022-10-19T10:07:47.986Z,7.78
2022-10-19T10:10:25.537Z,10.15
2022-10-19T10:12:54.011Z,8.43
2022-10-19T10:15:24.866Z,10.27
2022-10-19T10:17:52.166Z,6.30
2022-10-19T10:20:21.644Z,7.15
2022-10-19T10:22:52.638Z,4.57
2022-10-19T10:25:19.935Z,5.10
2022-10-19T10:28:00.673Z,6.72
2022-10-19T10:30:27.919Z,4.70
2022-10-19T10:32:55.271Z,2.83
2022-10-19T10:35:25.614Z,4.43
2022-10-19T10:37:52.803Z,5.07
2022-10-19T10:40:23.680Z,3.80
2022-10-19T10:42:51.317Z,3.80
2022-10-19T10:45:18.451Z,2.40
2022-10-19T10:47:48.305Z,4.70
2022-10-19T10:50:21.116Z,3.80
2022-10-19T10:53:04.895Z,2.10
2022-10-19T10:55:32.243Z,5.63
2022-10-19T10:58:07.683Z,3.60
2022-10-19T11:00:37.721Z,6.43
2022-10-19T11:03:15.546Z,2.28
2022-10-19T11:05:44.844Z,3.85
2022-10-19T11:08:19.619Z,2.47
2022-10-19T11:10:55.256Z,2.10
2022-10-19T11:13:24.997Z,3.80
2022-10-19T11:15:53.889Z,4.70
2022-10-19T11:18:27.166Z,3.88
2022-10-19T11:20:56.753Z,4.60
2022-10-19T11:23:48.105Z,7.25
2022-10-19T11:26:33.927Z,2.13
2022-10-19T11:29:08.480Z,3.67
2022-10-19T11:31:48.483Z,5.90
2022-10-19T11:34:26.021Z,3.47
2022-10-19T11:36:53.343Z,4.93
2022-10-19T11:39:46.898Z,2.78
2022-10-19T11:42:14.033Z,14.32
2022-10-19T11:44:51.774Z,7.55
2022-10-19T11:47:23.046Z,4.45
2022-10-19T11:49:53.142Z,5.97
2022-10-19T11:52:23.044Z,4.85
2022-10-19T11:54:56.138Z,5.05
2022-10-19T11:57:32.088Z,4.65
2022-10-19T12:00:08.289Z,2.83
2022-10-19T12:02:55.558Z,3.10
2022-10-19T12:05:27.974Z,3.05
2022-10-19T12:07:55.553Z,4.25
2022-10-19T12:10:25.633Z,3.60
2022-10-19T12:12:53.788Z,4.03
2022-10-19T12:15:29.045Z,1.40
2022-10-19T12:17:56.906Z,4.05
2022-10-19T12:20:27.092Z,3.92
2022-10-19T12:22:54.259Z,4.88
2022-10-19T12:25:21.422Z,6.70
2022-10-19T12:27:49.969Z,2.92
2022-10-19T12:30:18.626Z,7.28
2022-10-19T12:33:06.628Z,1.52
2022-10-19T12:35:40.591Z,3.45
2022-10-19T12:38:09.910Z,3.95
2022-10-19T12:40:41.148Z,5.57
2022-10-19T12:43:34.828Z,2.22
2022-10-19T12:46:10.834Z,4.07
2022-10-19T12:48:39.306Z,6.60
2022-10-19T12:51:07.554Z,3.95
2022-10-19T12:53:40.649Z,4.43
2022-10-19T12:56:10.813Z,4.63
2022-10-19T12:58:45.053Z,4.63
2022-10-19T13:01:18.098Z,8.02
2022-10-19T13:03:47.006Z,6.05
2022-10-19T13:06:19.346Z,4.47
2022-10-19T13:08:55.814Z,4.82
2022-10-19T13:11:23.087Z,3.67
2022-10-19T13:13:53.809Z,5.63
2022-10-19T13:16:30.128Z,3.40
2022-10-19T13:19:00.315Z,5.95
2022-10-19T13:21:47.192Z,13.95
2022-10-19T13:24:34.772Z,15.13
2022-10-19T13:27:04.818Z,16.92
2022-10-19T13:29:40.718Z,7.93
2022-10-19T13:32:26.786Z,8.48
2022-10-19T13:34:53.921Z,4.95
2022-10-19T13:37:21.146Z,8.52
2022-10-19T13:39:48.367Z,7.20
2022-10-19T13:42:24.812Z,7.70
2022-10-19T13:44:53.053Z,8.73
2022-10-19T13:50:07.810Z,14.52
2022-10-19T13:52:35.136Z,7.30
2022-10-19T13:55:11.948Z,3.35
2022-10-19T13:57:42.007Z,5.13
2022-10-19T14:00:11.983Z,9.65
2022-10-19T14:02:46.137Z,13.32
2022-10-19T14:05:25.416Z,7.43
2022-10-19T14:07:58.707Z,7.25
2022-10-19T14:10:32.714Z,7.50
2022-10-19T14:13:00.229Z,7.90
2022-10-19T14:15:28.448Z,5.80
2022-10-19T14:17:55.671Z,5.53
2022-10-19T14:20:25.929Z,8.05
2022-10-19T14:22:53.095Z,7.03
2022-10-19T14:25:21.379Z,7.25
2022-10-19T14:27:48.957Z,4.43
2022-10-19T14:30:22.909Z,6.40
2022-10-19T14:32:50.119Z,15.73
2022-10-19T14:35:19.917Z,15.32
2022-10-19T14:37:47.259Z,9.70
2022-10-19T14:40:27.758Z,11.48
2022-10-19T14:42:55.788Z,9.05
2022-10-19T14:45:24.230Z,5.25
2022-10-19T14:47:54.847Z,4.60
2022-10-19T14:50:22.624Z,5.50
2022-10-19T14:52:49.805Z,6.30
2022-10-19T14:55:18.076Z,8.18
2022-10-19T14:57:45.709Z,10.35
2022-10-19T15:00:17.757Z,8.27
2022-10-19T15:02:48.938Z,4.93
2022-10-19T15:05:29.441Z,11.73
2022-10-19T15:07:56.742Z,6.30
2022-10-19T15:10:25.139Z,10.90
2022-10-19T15:12:52.720Z,9.15
2022-10-19T15:15:27.200Z,15.75
2022-10-19T15:17:55.543Z,13.68
2022-10-19T15:20:25.802Z,9.80
2022-10-19T15:22:52.998Z,7.45
2022-10-19T15:25:25.123Z,10.02
2022-10-19T15:27:53.681Z,9.00
2022-10-19T15:30:32.068Z,13.02
2022-10-19T15:33:02.337Z,6.68
2022-10-19T15:35:30.565Z,37.22
2022-10-19T15:38:16.068Z,16.95
2022-10-19T15:40:43.660Z,15.15
2022-10-19T15:43:29.493Z,14.20
2022-10-19T15:46:03.513Z,45.17
2022-10-19T15:48:48.102Z,65.13
2022-10-19T15:51:26.046Z,38.90
2022-10-19T15:53:53.762Z,43.05
2022-10-19T15:56:21.188Z,56.33
2022-10-19T15:58:51.983Z,64.78
2022-10-19T16:01:20.013Z,36.72
2022-10-19T16:03:47.212Z,45.22
2022-10-19T16:06:14.327Z,70.88
2022-10-19T16:08:41.537Z,26.90
2022-10-19T16:11:14.893Z,68.78
2022-10-19T16:13:42.082Z,95.05
2022-10-19T16:16:11.647Z,33.33
2022-10-19T16:18:39.108Z,40.00
2022-10-19T16:21:06.386Z,59.60
2022-10-19T16:23:39.343Z,56.22
2022-10-19T16:26:09.156Z,48.28
2022-10-19T16:28:36.283Z,36.92
2022-10-19T16:31:03.409Z,38.53
2022-10-19T16:33:30.561Z,31.30
2022-10-19T16:35:57.714Z,49.58
2022-10-19T16:38:24.895Z,71.25
2022-10-19T16:40:52.073Z,51.22
2022-10-19T16:43:19.437Z,21.65
2022-10-19T16:45:46.630Z,17.95
2022-10-19T16:48:13.805Z,26.95
2022-10-19T16:50:40.935Z,38.60
2022-10-19T16:53:12.084Z,43.25
2022-10-19T16:55:42.463Z,21.60
2022-10-19T16:58:09.608Z,21.55
2022-10-19T17:00:36.795Z,33.03
2022-10-19T17:03:03.995Z,23.85
2022-10-19T17:05:31.130Z,25.67
2022-10-19T17:07:58.263Z,9.85
2022-10-19T17:10:25.467Z,10.20
2022-10-19T17:12:52.620Z,12.38
2022-10-19T17:18:07.660Z,16.75
2022-10-19T17:20:34.819Z,17.00
2022-10-19T17:23:01.949Z,16.58
2022-10-19T17:25:29.189Z,14.32
2022-10-19T17:27:56.413Z,13.55
2022-10-19T17:30:23.559Z,19.10
2022-10-19T17:32:50.800Z,9.35
2022-10-19T17:35:18.003Z,12.68
2022-10-19T17:37:45.143Z,17.27
2022-10-19T17:40:12.474Z,9.35
2022-10-19T17:42:39.591Z,87.68
2022-10-19T17:45:07.006Z,26.42
2022-10-19T17:47:34.459Z,27.67
2022-10-19T17:50:01.800Z,27.05
2022-10-19T17:52:28.913Z,23.95
2022-10-19T17:55:12.516Z,12.32
2022-10-19T17:57:40.187Z,10.88
2022-10-19T18:00:07.794Z,12.05
2022-10-19T18:02:35.845Z,12.95
2022-10-19T18:05:04.626Z,17.60
2022-10-19T18:07:32.315Z,14.85
2022-10-19T18:09:59.590Z,11.00
2022-10-19T18:12:26.847Z,12.73
2022-10-19T18:14:54.063Z,10.95
2022-10-19T18:17:24.102Z,17.10
2022-10-19T18:19:54.157Z,25.15
2022-10-19T18:22:21.873Z,12.15
2022-10-19T18:24:49.581Z,15.45
2022-10-19T18:27:16.796Z,13.45
2022-10-19T18:29:44.034Z,10.68
2022-10-19T18:32:11.980Z,9.88
2022-10-19T18:34:39.234Z,12.20
2022-10-19T18:37:07.298Z,15.88
2022-10-19T18:39:34.446Z,19.70
2022-10-19T18:42:01.645Z,7.78
2022-10-19T18:44:32.521Z,28.00
2022-10-19T18:47:00.764Z,16.65
2022-10-19T18:49:27.950Z,9.15
2022-10-19T18:51:56.094Z,14.23
2022-10-19T18:54:23.678Z,12.80
2022-10-19T18:56:50.877Z,9.13
2022-10-19T18:59:18.672Z,8.93
2022-10-19T19:01:45.974Z,11.73
2022-10-19T19:04:13.198Z,9.75
2022-10-19T19:06:40.393Z,8.75
2022-10-19T19:09:08.733Z,8.88
2022-10-19T19:11:37.467Z,36.70
2022-10-19T19:14:12.641Z,19.50
2022-10-19T19:16:39.895Z,25.20
2022-10-19T19:19:07.071Z,23.52
2022-10-19T19:21:35.570Z,22.35
2022-10-19T19:24:03.965Z,20.02
2022-10-19T19:26:31.779Z,11.60
2022-10-19T19:28:59.001Z,16.02
2022-10-19T19:31:26.274Z,12.10
2022-10-19T19:33:53.433Z,16.75
2022-10-19T19:36:20.663Z,32.50
2022-10-19T19:38:50.531Z,12.90
2022-10-19T19:41:17.739Z,17.70
2022-10-19T19:43:44.930Z,12.13
2022-10-19T19:46:17.161Z,13.75
2022-10-19T19:48:45.060Z,13.02
2022-10-19T19:51:14.172Z,14.05
2022-10-19T19:53:41.461Z,12.07
2022-10-19T19:56:09.054Z,10.93
2022-10-19T19:58:36.201Z,10.48
2022-10-19T20:01:30.474Z,8.85
2022-10-19T20:03:58.725Z,8.15
2022-10-19T20:06:26.207Z,7.82
2022-10-19T20:08:54.109Z,11.80
2022-10-19T20:11:21.972Z,9.60
2022-10-19T20:13:49.162Z,9.98
2022-10-19T20:16:17.179Z,9.75
2022-10-19T20:18:44.752Z,8.73
2022-10-19T20:21:11.916Z,9.73
2022-10-19T20:23:39.094Z,9.25
2022-10-19T20:26:06.365Z,8.32
2022-10-19T20:28:33.628Z,9.27
2022-10-19T20:31:04.468Z,10.15
2022-10-19T20:33:32.189Z,7.68
2022-10-19T20:36:31.759Z,9.60
2022-10-19T20:38:59.195Z,7.78
2022-10-19T20:41:27.658Z,12.02
2022-10-19T20:43:55.313Z,8.48
2022-10-19T20:46:23.138Z,8.90
2022-10-19T20:48:50.399Z,12.45
2022-10-19T20:51:18.582Z,8.32
2022-10-19T20:53:46.415Z,8.85
2022-10-19T20:56:14.019Z,8.88
2022-10-19T20:58:43.384Z,9.07
2022-10-19T21:01:19.464Z,10.00
2022-10-19T21:03:50.867Z,8.77
2022-10-19T21:06:17.976Z,10.88
2022-10-19T21:08:45.142Z,9.90
2022-10-19T21:11:19.059Z,13.98
2022-10-19T21:13:46.219Z,11.95
2022-10-19T21:16:14.747Z,10.63
2022-10-19T21:18:42.115Z,9.98
2022-10-19T21:21:16.613Z,9.98
2022-10-19T21:23:44.406Z,9.88
2022-10-19T21:26:11.672Z,9.30
2022-10-19T21:28:39.906Z,8.73
2022-10-19T21:31:07.726Z,8.32
2022-10-19T21:33:34.863Z,9.23
2022-10-19T21:36:06.009Z,11.40
2022-10-19T21:38:33.305Z,11.02
2022-10-19T21:41:00.694Z,9.40
2022-10-19T21:43:27.906Z,9.82
2022-10-19T21:45:55.059Z,10.00
2022-10-19T21:48:22.179Z,10.20
2022-10-19T21:50:49.618Z,11.30
2022-10-19T21:53:20.409Z,10.77
2022-10-19T21:55:47.744Z,10.63
2022-10-19T21:58:14.992Z,10.38
2022-10-19T22:00:42.428Z,8.77
2022-10-19T22:03:09.937Z,12.98
2022-10-19T22:05:37.071Z,13.10
2022-10-19T22:08:04.270Z,12.38
2022-10-19T22:10:31.480Z,13.60
2022-10-19T22:12:58.667Z,11.27
2022-10-19T22:15:25.843Z,16.13
2022-10-19T22:17:53.062Z,15.45
2022-10-19T22:20:20.178Z,15.25
2022-10-19T22:22:50.282Z,29.55
2022-10-19T22:25:19.950Z,20.73
2022-10-19T22:27:47.075Z,14.02
2022-10-19T22:30:14.241Z,12.48
2022-10-19T22:32:59.963Z,13.25
2022-10-19T22:35:27.114Z,24.67
2022-10-19T22:37:54.231Z,29.80
2022-10-19T22:40:21.365Z,33.55
2022-10-19T22:42:48.492Z,31.15
2022-10-19T22:45:15.586Z,44.42
2022-10-19T22:47:42.673Z,40.90
2022-10-19T22:50:11.818Z,37.53
2022-10-19T22:52:39.144Z,43.95
2022-10-19T22:55:06.490Z,35.47
2022-10-19T22:57:33.619Z,25.98
2022-10-19T23:00:00.689Z,24.10
2022-10-19T23:02:27.795Z,21.83
2022-10-19T23:04:54.914Z,20.85
2022-10-19T23:07:21.997Z,19.38
2022-10-19T23:09:49.085Z,24.33
2022-10-19T23:12:16.212Z,20.50
2022-10-19T23:14:43.311Z,26.38
2022-10-19T23:17:10.400Z,32.40
2022-10-19T23:19:37.782Z,29.88
2022-10-19T23:22:04.864Z,31.48
2022-10-19T23:24:31.946Z,31.52
2022-10-19T23:26:59.250Z,31.17
2022-10-19T23:29:26.472Z,33.65
2022-10-19T23:31:53.555Z,28.92
2022-10-19T23:34:20.690Z,28.40
2022-10-19T23:36:47.824Z,27.67
2022-10-19T23:39:14.906Z,32.78
2022-10-19T23:41:42.071Z,30.48
2022-10-19T23:44:10.040Z,27.15
2022-10-19T23:46:37.133Z,27.23
2022-10-19T23:49:04.244Z,26.63
2022-10-19T23:51:31.364Z,23.05
2022-10-19T23:53:58.470Z,20.95
2022-10-19T23:56:26.534Z,21.55
2022-10-19T23:58:53.811Z,25.40
